Time;durP1;ratioP1;P1;durP2;ratioP2;P2;SDS_P1;SDS_P2;PMS_P1;PMS_P2;Temp;Humidity;BMP_temperature;BMP_pressure;BME280_temperature;BME280_humidity;BME280_pressure;Samples;Min_cycle;Max_cycle;Signal;HPM_P1;HPM_P2
2021/04/01 00:02:26;;;;;;;33.70;17.73;;;;;;;;;;5053504;28;20229;-63
2021/04/01 00:04:53;;;;;;;26.00;15.87;;;;;;;;;;5054074;28;20209;-63
2021/04/01 00:07:19;;;;;;;32.37;18.27;;;;;;;;;;5053775;28;20209;-63
2021/04/01 00:09:46;;;;;;;32.23;17.50;;;;;;;;;;5053709;28;20209;-63
2021/04/01 00:12:14;;;;;;;30.67;16.97;;;;;;;;;;5053486;28;20313;-63
2021/04/01 00:14:40;;;;;;;40.00;19.57;;;;;;;;;;5053232;28;20235;-63
2021/04/01 00:17:08;;;;;;;29.53;17.57;;;;;;;;;;5052296;28;20204;-63
2021/04/01 00:19:34;;;;;;;36.70;18.63;;;;;;;;;;5052693;28;20580;-63
2021/04/01 00:22:01;;;;;;;28.07;16.23;;;;;;;;;;5053233;28;20229;-62
2021/04/01 00:24:27;;;;;;;29.27;17.57;;;;;;;;;;5053556;28;20210;-63
2021/04/01 00:26:54;;;;;;;34.77;17.87;;;;;;;;;;5053453;28;20206;-63
2021/04/01 00:29:21;;;;;;;34.90;18.00;;;;;;;;;;5053263;28;20206;-63
2021/04/01 00:31:48;;;;;;;33.63;19.93;;;;;;;;;;5052804;28;20228;-63
2021/04/01 00:34:14;;;;;;;38.63;20.10;;;;;;;;;;5053408;28;20221;-63
2021/04/01 00:36:41;;;;;;;43.23;21.93;;;;;;;;;;5053096;28;20218;-63
2021/04/01 00:39:08;;;;;;;37.40;21.23;;;;;;;;;;5053247;28;20209;-63
2021/04/01 00:41:34;;;;;;;35.37;21.00;;;;;;;;;;5052856;28;20226;-63
2021/04/01 00:44:03;;;;;;;41.80;21.33;;;;;;;;;;5053138;28;20208;-63
2021/04/01 00:46:30;;;;;;;42.33;21.70;;;;;;;;;;5053400;28;20303;-63
2021/04/01 00:48:57;;;;;;;38.10;21.20;;;;;;;;;;5052841;28;20213;-63
2021/04/01 00:51:23;;;;;;;32.90;19.10;;;;;;;;;;5052477;28;20220;-62
2021/04/01 00:53:50;;;;;;;35.83;19.80;;;;;;;;;;5052551;28;20224;-62
2021/04/01 00:56:17;;;;;;;38.73;21.17;;;;;;;;;;5052950;28;20639;-62
2021/04/01 00:58:43;;;;;;;37.10;20.33;;;;;;;;;;5053129;28;20216;-62
2021/04/01 01:01:29;;;;;;;35.30;19.93;;;;;;;;;;5052313;28;20209;-63
2021/04/01 01:03:57;;;;;;;36.80;19.80;;;;;;;;;;5052781;28;20212;-63
2021/04/01 01:06:23;;;;;;;47.10;20.50;;;;;;;;;;5052198;28;20254;-63
2021/04/01 01:08:50;;;;;;;41.27;21.87;;;;;;;;;;5052464;28;20216;-62
2021/04/01 01:11:17;;;;;;;41.27;22.47;;;;;;;;;;5052156;28;20210;-63
2021/04/01 01:13:43;;;;;;;44.77;23.27;;;;;;;;;;5052512;28;20234;-63
2021/04/01 01:16:10;;;;;;;40.77;22.47;;;;;;;;;;5052759;28;20208;-62
2021/04/01 01:18:37;;;;;;;43.90;21.57;;;;;;;;;;5051028;28;20206;-63
2021/04/01 01:21:04;;;;;;;39.07;21.30;;;;;;;;;;5051546;28;20588;-62
2021/04/01 01:23:32;;;;;;;40.87;20.83;;;;;;;;;;5051424;28;20204;-63
2021/04/01 01:25:59;;;;;;;40.23;21.27;;;;;;;;;;5052439;28;20234;-63
2021/04/01 01:28:26;;;;;;;41.77;21.67;;;;;;;;;;5052078;28;20216;-63
2021/04/01 01:30:53;;;;;;;40.00;20.90;;;;;;;;;;5052612;28;20209;-62
2021/04/01 01:33:20;;;;;;;40.07;21.83;;;;;;;;;;5052150;28;20230;-63
2021/04/01 01:35:48;;;;;;;40.03;20.93;;;;;;;;;;5051828;28;20314;-62
2021/04/01 01:38:14;;;;;;;39.63;21.37;;;;;;;;;;5052410;28;20208;-62
2021/04/01 01:40:41;;;;;;;38.70;19.97;;;;;;;;;;5052339;28;20211;-62
2021/04/01 01:43:10;;;;;;;42.03;20.67;;;;;;;;;;5052095;28;20232;-63
2021/04/01 01:45:37;;;;;;;40.47;21.43;;;;;;;;;;5052194;28;20216;-63
2021/04/01 01:48:03;;;;;;;38.50;20.73;;;;;;;;;;5052507;28;20207;-62
2021/04/01 01:50:31;;;;;;;40.57;22.30;;;;;;;;;;5052155;28;20276;-62
2021/04/01 01:52:58;;;;;;;40.27;21.63;;;;;;;;;;5051786;28;20228;-62
2021/04/01 01:55:25;;;;;;;41.27;22.03;;;;;;;;;;5052180;28;20213;-63
2021/04/01 01:57:51;;;;;;;40.33;21.63;;;;;;;;;;5052160;28;20223;-63
2021/04/01 02:00:21;;;;;;;40.63;22.20;;;;;;;;;;5052339;28;20672;-62
2021/04/01 02:02:51;;;;;;;41.03;21.50;;;;;;;;;;5051729;28;20222;-62
2021/04/01 02:05:18;;;;;;;40.50;22.23;;;;;;;;;;5052563;28;20297;-62
2021/04/01 02:07:45;;;;;;;37.40;20.93;;;;;;;;;;5052218;28;20207;-63
2021/04/01 02:10:14;;;;;;;43.30;22.47;;;;;;;;;;5052280;28;20292;-62
2021/04/01 02:12:41;;;;;;;47.93;22.50;;;;;;;;;;5051329;28;20314;-63
2021/04/01 02:15:10;;;;;;;42.03;23.20;;;;;;;;;;5051594;28;20876;-63
2021/04/01 02:17:38;;;;;;;46.50;23.53;;;;;;;;;;5053827;28;20297;-63
2021/04/01 02:20:05;;;;;;;42.80;22.97;;;;;;;;;;5055823;28;20210;-63
2021/04/01 02:22:31;;;;;;;39.60;22.60;;;;;;;;;;5055516;28;20700;-62
2021/04/01 02:24:58;;;;;;;43.77;23.20;;;;;;;;;;5055780;28;20207;-62
2021/04/01 02:27:25;;;;;;;43.67;22.50;;;;;;;;;;5055738;28;20302;-63
2021/04/01 02:29:51;;;;;;;39.13;22.20;;;;;;;;;;5055650;28;20310;-63
2021/04/01 02:32:18;;;;;;;42.13;22.90;;;;;;;;;;5055296;28;20884;-63
2021/04/01 02:34:45;;;;;;;47.33;23.00;;;;;;;;;;5055575;28;20307;-62
2021/04/01 02:37:11;;;;;;;45.03;23.80;;;;;;;;;;5055573;28;20215;-63
2021/04/01 02:39:38;;;;;;;44.57;23.60;;;;;;;;;;5057489;28;20210;-63
2021/04/01 02:42:05;;;;;;;47.50;25.07;;;;;;;;;;5063254;28;20222;-62
2021/04/01 02:44:32;;;;;;;44.23;24.07;;;;;;;;;;5060792;28;20263;-63
2021/04/01 02:46:58;;;;;;;49.27;24.33;;;;;;;;;;5056262;28;20237;-62
2021/04/01 02:49:25;;;;;;;46.80;24.60;;;;;;;;;;5063531;28;20234;-62
2021/04/01 02:51:52;;;;;;;46.10;24.00;;;;;;;;;;5062411;28;20306;-63
2021/04/01 02:54:18;;;;;;;47.33;24.03;;;;;;;;;;5059762;28;20742;-62
2021/04/01 02:56:45;;;;;;;42.67;22.37;;;;;;;;;;5055249;28;20621;-62
2021/04/01 02:59:11;;;;;;;43.27;22.97;;;;;;;;;;5055026;28;20215;-63
2021/04/01 03:01:38;;;;;;;44.10;22.90;;;;;;;;;;5054767;28;20652;-63
2021/04/01 03:04:08;;;;;;;41.57;22.57;;;;;;;;;;5055212;28;20206;-63
2021/04/01 03:06:35;;;;;;;48.37;23.93;;;;;;;;;;5054965;28;20680;-62
2021/04/01 03:09:02;;;;;;;43.33;23.00;;;;;;;;;;5055005;28;20245;-63
2021/04/01 03:11:29;;;;;;;43.03;23.17;;;;;;;;;;5054303;28;20227;-63
2021/04/01 03:13:57;;;;;;;42.17;22.40;;;;;;;;;;5054766;28;20584;-63
2021/04/01 03:16:23;;;;;;;43.13;22.60;;;;;;;;;;5054905;28;20650;-63
2021/04/01 03:18:50;;;;;;;43.73;22.07;;;;;;;;;;5054894;28;20594;-64
2021/04/01 03:21:16;;;;;;;41.83;23.37;;;;;;;;;;5054587;28;20217;-63
2021/04/01 03:23:43;;;;;;;41.33;22.37;;;;;;;;;;5054484;28;20210;-63
2021/04/01 03:26:10;;;;;;;45.40;21.63;;;;;;;;;;5054510;28;20207;-62
2021/04/01 03:28:37;;;;;;;47.60;23.30;;;;;;;;;;5054560;28;20645;-63
2021/04/01 03:31:03;;;;;;;40.90;22.70;;;;;;;;;;5054852;28;20297;-63
2021/04/01 03:33:30;;;;;;;47.93;24.33;;;;;;;;;;5054135;28;20239;-62
2021/04/01 03:35:57;;;;;;;46.07;23.40;;;;;;;;;;5054520;28;20207;-63
2021/04/01 03:38:24;;;;;;;47.50;23.13;;;;;;;;;;5054320;28;20624;-63
2021/04/01 03:40:52;;;;;;;47.67;25.23;;;;;;;;;;5054234;28;20213;-62
2021/04/01 03:43:19;;;;;;;46.13;24.87;;;;;;;;;;5054069;28;20296;-63
2021/04/01 03:45:46;;;;;;;50.60;24.60;;;;;;;;;;5054393;28;20202;-62
2021/04/01 03:48:13;;;;;;;48.20;24.93;;;;;;;;;;5054403;28;20208;-62
2021/04/01 03:50:39;;;;;;;50.73;25.30;;;;;;;;;;5054099;28;20254;-63
2021/04/01 03:53:07;;;;;;;44.17;24.17;;;;;;;;;;5053701;28;20235;-62
2021/04/01 03:55:38;;;;;;;49.33;24.63;;;;;;;;;;5053822;28;20211;-62
2021/04/01 03:58:16;;;;;;;51.43;24.33;;;;;;;;;;5054413;28;20218;-62
2021/04/01 04:00:49;;;;;;;48.83;25.17;;;;;;;;;;5053998;28;20215;-62
2021/04/01 04:03:30;;;;;;;52.87;25.97;;;;;;;;;;5053746;28;20223;-62
2021/04/01 04:06:03;;;;;;;53.47;25.50;;;;;;;;;;5053792;28;20255;-62
2021/04/01 04:08:49;;;;;;;51.67;25.57;;;;;;;;;;5053928;28;20237;-63
2021/04/01 04:11:30;;;;;;;51.40;25.17;;;;;;;;;;5053758;28;20238;-63
2021/04/01 04:14:00;;;;;;;50.83;23.50;;;;;;;;;;5053713;28;20228;-63
2021/04/01 04:16:27;;;;;;;43.67;24.33;;;;;;;;;;5053669;28;20265;-62
2021/04/01 04:18:55;;;;;;;46.43;24.03;;;;;;;;;;5052793;28;20212;-61
2021/04/01 04:21:22;;;;;;;47.90;23.43;;;;;;;;;;5051834;28;20204;-62
2021/04/01 04:23:49;;;;;;;52.23;24.93;;;;;;;;;;5053664;28;20616;-63
2021/04/01 04:26:16;;;;;;;52.53;24.90;;;;;;;;;;5053406;28;20694;-62
2021/04/01 04:28:43;;;;;;;51.07;25.17;;;;;;;;;;5053341;28;20285;-62
2021/04/01 04:31:10;;;;;;;49.23;25.33;;;;;;;;;;5053428;28;20214;-63
2021/04/01 04:33:37;;;;;;;50.93;25.10;;;;;;;;;;5052814;28;20232;-63
2021/04/01 04:36:05;;;;;;;47.87;23.83;;;;;;;;;;5053094;28;20631;-63
2021/04/01 04:38:31;;;;;;;55.67;26.13;;;;;;;;;;5053140;28;20683;-63
2021/04/01 04:40:58;;;;;;;52.10;26.23;;;;;;;;;;5052268;28;20215;-64
2021/04/01 04:43:25;;;;;;;52.57;26.47;;;;;;;;;;5052019;28;20217;-66
2021/04/01 04:45:52;;;;;;;62.07;30.27;;;;;;;;;;5051852;28;20660;-64
2021/04/01 04:48:19;;;;;;;61.80;28.70;;;;;;;;;;5053014;28;20205;-63
2021/04/01 04:50:46;;;;;;;60.27;30.07;;;;;;;;;;5052962;28;20208;-62
2021/04/01 04:53:14;;;;;;;63.90;29.47;;;;;;;;;;5052531;28;20236;-62
2021/04/01 04:55:41;;;;;;;64.03;29.00;;;;;;;;;;5052512;28;20206;-63
2021/04/01 04:58:12;;;;;;;62.67;29.73;;;;;;;;;;5052715;28;20212;-63
2021/04/01 05:06:05;;;;;;;52.47;26.77;;;;;;;;;;5052678;28;20202;-67
2021/04/01 05:08:32;;;;;;;54.00;25.27;;;;;;;;;;5048101;28;20208;-67
2021/04/01 05:10:58;;;;;;;51.00;26.37;;;;;;;;;;5051816;28;20353;-66
2021/04/01 05:13:25;;;;;;;47.80;23.33;;;;;;;;;;5051893;28;20232;-66
2021/04/01 05:15:52;;;;;;;51.43;22.17;;;;;;;;;;5051784;28;20274;-66
2021/04/01 05:18:27;;;;;;;42.43;23.53;;;;;;;;;;5051555;28;20710;-66
2021/04/01 05:20:54;;;;;;;47.97;23.20;;;;;;;;;;5051741;28;20202;-67
2021/04/01 05:23:29;;;;;;;42.53;22.97;;;;;;;;;;5051771;28;20229;-64
2021/04/01 05:26:16;;;;;;;54.57;25.63;;;;;;;;;;5051855;28;20751;-63
2021/04/01 05:28:45;;;;;;;52.93;27.07;;;;;;;;;;5051383;28;20223;-63
2021/04/01 05:31:12;;;;;;;49.23;25.53;;;;;;;;;;5051768;28;20204;-63
2021/04/01 05:33:43;;;;;;;50.27;27.20;;;;;;;;;;5050799;28;20229;-64
2021/04/01 05:36:11;;;;;;;52.97;27.27;;;;;;;;;;5051779;28;20205;-63
2021/04/01 05:38:40;;;;;;;54.20;26.57;;;;;;;;;;5051330;28;20212;-63
2021/04/01 05:41:08;;;;;;;51.10;28.90;;;;;;;;;;5051213;28;20899;-68
2021/04/01 05:43:38;;;;;;;53.53;26.10;;;;;;;;;;5051221;28;20204;-63
2021/04/01 05:46:11;;;;;;;55.80;28.43;;;;;;;;;;5051356;28;20222;-63
2021/04/01 05:48:43;;;;;;;57.93;28.90;;;;;;;;;;5051438;28;20213;-64
2021/04/01 05:57:17;;;;;;;54.40;28.30;;;;;;;;;;5051091;28;20260;-66
2021/04/01 06:00:22;;;;;;;65.20;30.00;;;;;;;;;;5050610;28;20202;-64
2021/04/01 06:02:59;;;;;;;64.17;30.57;;;;;;;;;;5050360;28;20230;-64
2021/04/01 06:05:26;;;;;;;60.20;30.87;;;;;;;;;;5051308;28;20210;-64
2021/04/01 06:07:54;;;;;;;57.80;30.10;;;;;;;;;;5050829;28;20208;-62
2021/04/01 06:10:22;;;;;;;56.30;29.27;;;;;;;;;;5050954;28;20218;-64
2021/04/01 06:12:49;;;;;;;45.77;24.97;;;;;;;;;;5050581;28;20231;-64
2021/04/01 06:15:18;;;;;;;51.23;26.13;;;;;;;;;;5050710;28;20211;-65
2021/04/01 06:17:46;;;;;;;49.17;25.90;;;;;;;;;;5050977;28;20221;-66
2021/04/01 06:20:13;;;;;;;52.63;26.30;;;;;;;;;;5050686;28;20207;-66
2021/04/01 06:22:40;;;;;;;46.53;26.10;;;;;;;;;;5050174;28;20234;-65
2021/04/01 06:25:09;;;;;;;48.13;25.37;;;;;;;;;;5051102;28;20209;-66
2021/04/01 06:27:40;;;;;;;43.97;23.50;;;;;;;;;;5050363;28;20212;-66
2021/04/01 06:30:13;;;;;;;42.37;23.90;;;;;;;;;;5050864;28;20267;-66
2021/04/01 06:32:42;;;;;;;46.53;24.07;;;;;;;;;;5050306;28;20261;-66
2021/04/01 06:35:09;;;;;;;43.00;24.47;;;;;;;;;;5050899;28;20228;-65
2021/04/01 06:37:49;;;;;;;44.47;24.33;;;;;;;;;;5050772;28;20205;-66
2021/04/01 06:40:15;;;;;;;44.57;23.70;;;;;;;;;;5050670;28;20209;-66
2021/04/01 06:42:43;;;;;;;45.83;24.57;;;;;;;;;;5050154;28;20237;-65
2021/04/01 06:45:10;;;;;;;44.17;25.50;;;;;;;;;;5050948;28;20686;-67
2021/04/01 06:47:38;;;;;;;47.13;25.67;;;;;;;;;;5050971;28;20214;-68
2021/04/01 06:50:07;;;;;;;51.27;25.03;;;;;;;;;;5050916;28;20568;-65
2021/04/01 06:52:36;;;;;;;41.40;22.67;;;;;;;;;;5055803;28;20236;-68
2021/04/01 06:55:12;;;;;;;41.70;25.50;;;;;;;;;;5058319;28;20210;-66
2021/04/01 06:57:56;;;;;;;49.77;26.23;;;;;;;;;;5051489;28;20213;-65
2021/04/01 07:00:45;;;;;;;44.40;25.70;;;;;;;;;;5052244;28;20276;-66
2021/04/01 07:03:14;;;;;;;48.50;25.17;;;;;;;;;;5059890;28;20230;-66
2021/04/01 07:05:48;;;;;;;45.33;25.43;;;;;;;;;;5058588;28;20673;-66
2021/04/01 07:08:17;;;;;;;48.03;25.57;;;;;;;;;;5054270;28;20625;-66
2021/04/01 07:10:59;;;;;;;54.00;27.63;;;;;;;;;;5053984;28;20292;-66
2021/04/01 07:13:29;;;;;;;49.10;27.70;;;;;;;;;;5054090;28;20318;-67
2021/04/01 07:16:02;;;;;;;50.23;26.57;;;;;;;;;;5054732;28;20206;-69
2021/04/01 07:18:37;;;;;;;47.90;25.47;;;;;;;;;;5054153;28;20688;-67
2021/04/01 07:21:30;;;;;;;56.73;31.43;;;;;;;;;;5057557;28;20253;-67
2021/04/01 07:32:36;;;;;;;63.77;32.63;;;;;;;;;;5053046;28;20300;-69
2021/04/01 07:35:26;;;;;;;61.77;32.50;;;;;;;;;;5053705;28;20667;-69
2021/04/01 07:46:29;;;;;;;71.63;36.73;;;;;;;;;;5054067;28;20200;-66
2021/04/01 07:48:59;;;;;;;75.07;37.67;;;;;;;;;;5053435;28;20582;-66
2021/04/01 07:51:39;;;;;;;77.80;38.27;;;;;;;;;;5054208;28;20227;-66
2021/04/01 07:54:08;;;;;;;77.87;39.43;;;;;;;;;;5053109;28;20263;-66
2021/04/01 07:56:40;;;;;;;77.97;37.57;;;;;;;;;;5053378;28;20257;-63
2021/04/01 07:59:20;;;;;;;70.43;36.90;;;;;;;;;;5053191;28;20209;-63
2021/04/01 08:01:58;;;;;;;75.63;35.60;;;;;;;;;;5053271;28;20232;-63
2021/04/01 08:04:27;;;;;;;73.57;36.97;;;;;;;;;;5053600;28;20270;-63
2021/04/01 08:07:07;;;;;;;73.27;35.57;;;;;;;;;;5053212;28;20219;-64
2021/04/01 08:09:39;;;;;;;74.67;36.00;;;;;;;;;;5052864;28;20208;-65
2021/04/01 08:12:12;;;;;;;73.10;36.50;;;;;;;;;;5052841;28;20825;-66
2021/04/01 08:14:42;;;;;;;70.00;34.90;;;;;;;;;;5052646;28;20235;-63
2021/04/01 08:17:14;;;;;;;76.20;37.70;;;;;;;;;;5053262;28;20704;-64
2021/04/01 08:19:42;;;;;;;77.40;38.00;;;;;;;;;;5052816;28;20623;-66
2021/04/01 08:22:13;;;;;;;75.37;36.23;;;;;;;;;;5052539;28;20235;-62
2021/04/01 08:24:45;;;;;;;79.63;38.77;;;;;;;;;;5052971;28;20273;-67
2021/04/01 08:27:20;;;;;;;81.80;38.53;;;;;;;;;;5052459;28;20295;-66
2021/04/01 08:35:27;;;;;;;80.50;38.67;;;;;;;;;;5052089;28;20235;-63
2021/04/01 08:38:03;;;;;;;80.63;38.50;;;;;;;;;;5052788;28;20282;-64
2021/04/01 08:40:30;;;;;;;81.07;38.27;;;;;;;;;;5052366;28;20653;-63
2021/04/01 08:43:09;;;;;;;79.80;37.57;;;;;;;;;;5052223;28;20232;-71
2021/04/01 08:45:42;;;;;;;87.93;40.40;;;;;;;;;;5053002;28;20566;-69
2021/04/01 08:48:29;;;;;;;79.33;38.47;;;;;;;;;;5052408;28;20273;-68
2021/04/01 08:51:04;;;;;;;80.57;37.23;;;;;;;;;;5049129;28;20572;-66
2021/04/01 08:53:35;;;;;;;87.50;41.17;;;;;;;;;;5051878;28;20647;-68
2021/04/01 08:56:14;;;;;;;85.50;40.87;;;;;;;;;;5052369;28;20291;-65
2021/04/01 08:58:42;;;;;;;84.00;38.60;;;;;;;;;;5051740;28;20279;-65
2021/04/01 09:01:14;;;;;;;88.00;39.10;;;;;;;;;;5052157;28;20292;-65
2021/04/01 09:03:41;;;;;;;78.80;38.33;;;;;;;;;;5051597;28;20206;-67
2021/04/01 09:06:10;;;;;;;97.73;42.27;;;;;;;;;;5051809;28;20304;-67
2021/04/01 09:08:39;;;;;;;88.23;40.90;;;;;;;;;;5052067;28;20209;-66
2021/04/01 09:11:06;;;;;;;87.93;39.10;;;;;;;;;;5051752;28;20201;-66
2021/04/01 09:13:34;;;;;;;82.63;39.97;;;;;;;;;;5051804;28;20241;-65
2021/04/01 09:16:04;;;;;;;90.63;41.50;;;;;;;;;;5051866;28;20659;-63
2021/04/01 09:18:32;;;;;;;87.60;39.43;;;;;;;;;;5051386;28;20213;-64
2021/04/01 09:21:02;;;;;;;87.93;39.80;;;;;;;;;;5052639;28;20296;-64
2021/04/01 09:23:33;;;;;;;79.97;37.03;;;;;;;;;;5052154;28;20221;-65
2021/04/01 09:26:01;;;;;;;94.00;41.23;;;;;;;;;;5052753;28;20267;-66
2021/04/01 09:28:30;;;;;;;89.40;40.97;;;;;;;;;;5051698;28;20209;-63
2021/04/01 09:30:57;;;;;;;85.47;40.60;;;;;;;;;;5052333;28;20201;-63
2021/04/01 09:33:26;;;;;;;83.30;39.13;;;;;;;;;;5051909;28;20725;-64
2021/04/01 09:35:52;;;;;;;83.20;37.97;;;;;;;;;;5052290;28;20221;-64
2021/04/01 09:38:20;;;;;;;90.27;39.00;;;;;;;;;;5052110;28;20209;-62
2021/04/01 09:40:49;;;;;;;84.80;38.37;;;;;;;;;;5051500;28;20256;-65
2021/04/01 09:43:17;;;;;;;89.00;40.00;;;;;;;;;;5051337;28;20260;-69
2021/04/01 09:45:43;;;;;;;82.33;38.20;;;;;;;;;;5052400;28;20244;-69
2021/04/01 09:48:11;;;;;;;80.23;38.50;;;;;;;;;;5051739;28;20242;-61
2021/04/01 09:50:38;;;;;;;86.27;38.40;;;;;;;;;;5051456;28;20343;-62
2021/04/01 09:53:09;;;;;;;88.10;37.87;;;;;;;;;;5051095;28;20233;-61
2021/04/01 09:55:39;;;;;;;83.40;39.17;;;;;;;;;;5051938;28;20660;-61
2021/04/01 09:58:16;;;;;;;78.20;36.97;;;;;;;;;;5051163;28;20215;-61
2021/04/01 10:01:01;;;;;;;82.30;36.63;;;;;;;;;;5051549;28;20294;-61
2021/04/01 10:03:29;;;;;;;76.17;34.97;;;;;;;;;;5050541;28;20221;-64
2021/04/01 10:05:55;;;;;;;82.70;37.33;;;;;;;;;;5051190;28;20205;-64
2021/04/01 10:08:23;;;;;;;75.67;35.00;;;;;;;;;;5050867;28;20278;-61
2021/04/01 10:10:51;;;;;;;82.03;37.00;;;;;;;;;;5051345;28;20243;-61
2021/04/01 10:13:19;;;;;;;80.37;38.37;;;;;;;;;;5051165;28;20228;-61
2021/04/01 10:15:52;;;;;;;80.73;38.53;;;;;;;;;;5051020;28;20693;-67
2021/04/01 10:18:21;;;;;;;91.13;37.00;;;;;;;;;;5050591;28;20224;-66
2021/04/01 10:20:53;;;;;;;81.60;37.43;;;;;;;;;;5050799;28;20217;-66
2021/04/01 10:23:20;;;;;;;82.83;36.40;;;;;;;;;;5050610;28;20235;-64
2021/04/01 10:25:50;;;;;;;83.43;38.33;;;;;;;;;;5050866;28;20201;-66
2021/04/01 10:31:11;;;;;;;88.97;37.77;;;;;;;;;;5049256;28;20272;-68
2021/04/01 10:33:38;;;;;;;85.07;37.13;;;;;;;;;;5050334;28;20233;-65
2021/04/01 10:36:08;;;;;;;85.90;37.10;;;;;;;;;;5051544;28;20254;-63
2021/04/01 10:38:35;;;;;;;77.67;35.27;;;;;;;;;;5052817;28;20247;-63
2021/04/01 10:41:11;;;;;;;75.00;34.27;;;;;;;;;;5055480;28;20267;-65
2021/04/01 10:43:40;;;;;;;76.77;34.23;;;;;;;;;;5054605;28;20227;-64
2021/04/01 10:46:07;;;;;;;73.37;33.60;;;;;;;;;;5055639;28;20638;-65
2021/04/01 10:48:36;;;;;;;71.40;33.33;;;;;;;;;;5054835;28;20213;-63
2021/04/01 10:51:04;;;;;;;75.63;34.73;;;;;;;;;;5055369;28;20259;-64
2021/04/01 10:53:31;;;;;;;72.93;35.33;;;;;;;;;;5054357;28;20225;-62
2021/04/01 10:56:02;;;;;;;70.67;31.70;;;;;;;;;;5054978;28;20218;-67
2021/04/01 10:58:28;;;;;;;71.20;32.33;;;;;;;;;;5054859;28;20745;-67
2021/04/01 11:00:57;;;;;;;75.10;33.23;;;;;;;;;;5058116;28;20209;-68
2021/04/01 11:06:19;;;;;;;76.57;35.07;;;;;;;;;;5049741;28;20211;-70
2021/04/01 11:08:47;;;;;;;71.47;33.77;;;;;;;;;;5039031;28;20305;-69
2021/04/01 11:11:14;;;;;;;75.90;34.20;;;;;;;;;;5040150;28;20217;-65
2021/04/01 11:13:42;;;;;;;76.53;36.17;;;;;;;;;;5039655;28;20568;-65
2021/04/01 11:16:10;;;;;;;73.23;34.80;;;;;;;;;;5039813;28;20432;-64
2021/04/01 11:18:38;;;;;;;77.87;35.03;;;;;;;;;;5034583;28;20213;-64
2021/04/01 11:21:06;;;;;;;74.93;35.50;;;;;;;;;;5034065;28;20213;-62
2021/04/01 11:23:34;;;;;;;76.93;37.67;;;;;;;;;;5033512;28;20222;-64
2021/04/01 11:26:01;;;;;;;76.40;36.80;;;;;;;;;;5034171;28;20218;-66
2021/04/01 11:28:35;;;;;;;77.03;36.23;;;;;;;;;;5034159;28;20270;-65
2021/04/01 11:31:01;;;;;;;81.03;36.60;;;;;;;;;;5034150;28;20210;-64
2021/04/01 11:33:29;;;;;;;81.33;36.17;;;;;;;;;;5033746;28;20230;-63
2021/04/01 11:36:04;;;;;;;74.10;34.20;;;;;;;;;;5033736;28;20236;-64
2021/04/01 11:38:37;;;;;;;64.37;31.57;;;;;;;;;;5033577;28;20765;-65
2021/04/01 11:41:04;;;;;;;65.20;30.97;;;;;;;;;;5034231;28;20206;-65
2021/04/01 11:43:31;;;;;;;66.07;30.27;;;;;;;;;;5033530;28;20218;-64
2021/04/01 11:45:58;;;;;;;69.37;34.03;;;;;;;;;;5033940;28;20217;-66
2021/04/01 11:48:25;;;;;;;74.37;34.43;;;;;;;;;;5032537;28;20242;-68
2021/04/01 11:50:52;;;;;;;67.77;33.67;;;;;;;;;;5032650;28;20210;-68
2021/04/01 11:53:20;;;;;;;68.03;32.73;;;;;;;;;;5034355;28;20558;-68
2021/04/01 11:55:51;;;;;;;76.17;39.23;;;;;;;;;;5033890;28;20294;-69
2021/04/01 11:58:18;;;;;;;63.70;32.07;;;;;;;;;;5032926;28;20216;-69
2021/04/01 12:00:53;;;;;;;70.43;37.50;;;;;;;;;;5033405;28;20214;-67
2021/04/01 12:03:25;;;;;;;74.93;38.33;;;;;;;;;;5033533;28;20237;-68
2021/04/01 12:05:53;;;;;;;70.33;36.87;;;;;;;;;;5033334;28;20218;-67
2021/04/01 12:08:20;;;;;;;65.20;37.07;;;;;;;;;;5033249;28;20298;-67
2021/04/01 12:10:54;;;;;;;70.13;37.87;;;;;;;;;;5033225;28;20229;-66
2021/04/01 12:13:20;;;;;;;75.40;40.17;;;;;;;;;;5033042;28;20230;-66
2021/04/01 12:15:47;;;;;;;72.37;40.60;;;;;;;;;;5033584;28;20691;-66
2021/04/01 12:18:14;;;;;;;71.97;38.60;;;;;;;;;;5032923;28;20209;-66
2021/04/01 12:20:43;;;;;;;68.80;39.47;;;;;;;;;;5032983;28;20229;-68
2021/04/01 12:23:15;;;;;;;80.93;41.77;;;;;;;;;;5032199;28;20729;-68
2021/04/01 12:25:43;;;;;;;76.13;43.27;;;;;;;;;;5033471;28;20321;-66
2021/04/01 12:28:25;;;;;;;80.00;44.27;;;;;;;;;;5032839;28;20214;-69
2021/04/01 12:30:56;;;;;;;76.10;43.57;;;;;;;;;;5033115;28;20210;-70
2021/04/01 12:33:24;;;;;;;77.60;45.27;;;;;;;;;;5032735;28;20770;-67
2021/04/01 12:36:04;;;;;;;84.13;50.43;;;;;;;;;;5033131;28;20224;-67
2021/04/01 12:38:32;;;;;;;82.20;46.37;;;;;;;;;;5032099;28;20221;-67
2021/04/01 12:41:00;;;;;;;86.93;50.00;;;;;;;;;;5033204;28;20206;-67
2021/04/01 12:43:31;;;;;;;96.20;50.80;;;;;;;;;;5032413;28;20226;-68
2021/04/01 12:45:57;;;;;;;87.30;50.23;;;;;;;;;;5032872;28;20731;-65
2021/04/01 12:48:24;;;;;;;98.47;54.83;;;;;;;;;;5032695;28;20208;-66
2021/04/01 12:50:52;;;;;;;84.00;48.67;;;;;;;;;;5032743;28;20210;-69
2021/04/01 12:53:21;;;;;;;90.50;55.57;;;;;;;;;;5032490;28;20874;-68
2021/04/01 12:55:53;;;;;;;94.30;52.60;;;;;;;;;;5034037;28;20237;-70
2021/04/01 12:58:23;;;;;;;93.60;51.43;;;;;;;;;;5033632;28;20643;-70
2021/04/01 13:00:54;;;;;;;87.60;49.10;;;;;;;;;;5034647;28;20207;-70
2021/04/01 13:03:21;;;;;;;80.87;46.87;;;;;;;;;;5033447;28;20226;-71
2021/04/01 13:05:49;;;;;;;76.03;46.17;;;;;;;;;;5033879;28;20214;-68
2021/04/01 13:11:03;;;;;;;71.60;44.37;;;;;;;;;;5028785;28;20561;-67
2021/04/01 13:13:30;;;;;;;69.47;40.47;;;;;;;;;;5044673;28;20682;-67
2021/04/01 13:15:57;;;;;;;67.00;36.50;;;;;;;;;;5052041;28;20283;-67
2021/04/01 13:18:23;;;;;;;54.53;31.57;;;;;;;;;;5051752;28;20205;-63
2021/04/01 13:20:50;;;;;;;54.63;32.10;;;;;;;;;;5051961;28;20256;-62
2021/04/01 13:23:44;;;;;;;44.37;23.67;;;;;;;;;;5051600;28;20293;-63
2021/04/01 13:26:14;;;;;;;43.63;25.50;;;;;;;;;;5051657;28;20214;-61
2021/04/01 13:28:42;;;;;;;44.40;24.87;;;;;;;;;;5051224;28;20217;-65
2021/04/01 13:31:16;;;;;;;40.70;23.27;;;;;;;;;;5051354;28;20206;-63
2021/04/01 13:33:49;;;;;;;40.70;23.27;;;;;;;;;;5051429;28;20217;-62
2021/04/01 13:36:20;;;;;;;41.43;20.20;;;;;;;;;;5051375;28;20213;-63
2021/04/01 13:38:46;;;;;;;36.50;20.57;;;;;;;;;;5051191;28;20217;-62
2021/04/01 13:41:22;;;;;;;32.57;20.00;;;;;;;;;;5051787;28;20205;-63
2021/04/01 13:43:49;;;;;;;30.60;16.10;;;;;;;;;;5041961;28;20852;-66
2021/04/01 13:46:16;;;;;;;27.80;14.70;;;;;;;;;;5031706;28;20312;-66
2021/04/01 13:48:43;;;;;;;29.57;16.90;;;;;;;;;;5031074;28;20214;-63
2021/04/01 13:51:12;;;;;;;28.43;16.50;;;;;;;;;;5031530;28;20580;-63
2021/04/01 13:53:49;;;;;;;26.60;15.10;;;;;;;;;;5031686;28;20230;-63
2021/04/01 13:56:24;;;;;;;24.70;14.90;;;;;;;;;;5031477;28;20227;-63
2021/04/01 14:10:06;;;;;;;21.37;12.50;;;;;;;;;;5030747;28;20201;-66
2021/04/01 14:12:33;;;;;;;17.97;11.27;;;;;;;;;;5030452;28;20284;-62
2021/04/01 14:15:02;;;;;;;15.80;9.10;;;;;;;;;;5031437;28;20317;-65
2021/04/01 14:17:29;;;;;;;15.07;8.60;;;;;;;;;;5032150;28;20213;-65
2021/04/01 14:19:56;;;;;;;13.77;7.40;;;;;;;;;;5031000;28;20210;-65
2021/04/01 14:22:23;;;;;;;15.13;7.83;;;;;;;;;;5031093;28;20327;-65
2021/04/01 14:24:53;;;;;;;15.17;6.40;;;;;;;;;;5030583;28;20256;-64
2021/04/01 14:27:25;;;;;;;10.37;5.83;;;;;;;;;;5031268;28;20217;-64
2021/04/01 14:29:56;;;;;;;12.87;6.10;;;;;;;;;;5031065;28;20261;-64
2021/04/01 14:32:23;;;;;;;11.10;6.23;;;;;;;;;;5030612;28;20231;-65
2021/04/01 14:34:50;;;;;;;12.00;5.53;;;;;;;;;;5031132;28;20236;-64
2021/04/01 14:37:20;;;;;;;16.87;6.33;;;;;;;;;;5031071;28;20585;-62
2021/04/01 14:39:48;;;;;;;14.27;6.90;;;;;;;;;;5031080;28;20275;-69
2021/04/01 14:42:17;;;;;;;17.03;7.07;;;;;;;;;;5030849;28;20268;-66
2021/04/01 14:44:43;;;;;;;13.20;6.67;;;;;;;;;;5031308;28;20296;-64
2021/04/01 14:47:11;;;;;;;12.07;6.33;;;;;;;;;;5031130;28;20213;-68
2021/04/01 14:49:38;;;;;;;13.50;6.50;;;;;;;;;;5031012;28;20210;-68
2021/04/01 14:52:05;;;;;;;12.03;4.87;;;;;;;;;;5031005;28;20232;-63
2021/04/01 14:54:33;;;;;;;8.70;5.43;;;;;;;;;;5030678;28;20229;-65
2021/04/01 14:57:05;;;;;;;10.33;5.37;;;;;;;;;;5031266;28;20599;-64
2021/04/01 14:59:36;;;;;;;11.27;5.00;;;;;;;;;;5030363;28;20726;-66
2021/04/01 15:02:03;;;;;;;10.50;4.40;;;;;;;;;;5031400;28;20248;-64
2021/04/01 15:04:32;;;;;;;10.60;4.20;;;;;;;;;;5030616;28;21128;-64
2021/04/01 15:06:59;;;;;;;7.10;3.57;;;;;;;;;;5031419;28;20212;-66
2021/04/01 15:09:26;;;;;;;6.93;3.70;;;;;;;;;;5031647;28;20253;-67
2021/04/01 15:11:53;;;;;;;6.20;4.10;;;;;;;;;;5032294;28;20236;-67
2021/04/01 15:14:19;;;;;;;6.77;3.90;;;;;;;;;;5032254;28;20224;-71
2021/04/01 15:16:46;;;;;;;9.10;3.53;;;;;;;;;;5040036;28;20209;-69
2021/04/01 15:19:13;;;;;;;8.87;3.80;;;;;;;;;;5045069;28;20227;-68
2021/04/01 15:21:41;;;;;;;9.50;3.93;;;;;;;;;;5036875;28;20316;-67
2021/04/01 15:24:08;;;;;;;7.10;4.33;;;;;;;;;;5034537;28;20212;-65
2021/04/01 15:26:35;;;;;;;9.20;3.37;;;;;;;;;;5048029;28;20580;-64